createdAt,value
2018-12-01T00:00:07.727Z,20.716858
2018-12-01T00:00:34.089Z,20.716858
2018-12-01T00:01:00.492Z,20.716858
2018-12-01T00:01:27.829Z,20.74707
2018-12-01T00:01:54.229Z,20.726929
2018-12-01T00:02:20.721Z,20.716858
2018-12-01T00:02:48.062Z,20.716858
2018-12-01T00:03:14.412Z,20.716858
2018-12-01T00:03:40.750Z,20.716858
2018-12-01T00:04:07.118Z,20.726929
2018-12-01T00:04:33.484Z,20.716858
2018-12-01T00:04:59.899Z,20.716858
2018-12-01T00:05:26.350Z,20.706787
2018-12-01T00:05:53.705Z,20.716858
2018-12-01T00:06:20.046Z,20.716858
2018-12-01T00:06:46.431Z,20.706787
2018-12-01T00:07:12.772Z,20.716858
2018-12-01T00:07:39.980Z,20.716858
2018-12-01T00:08:06.432Z,20.716858
2018-12-01T00:08:32.827Z,20.726929
2018-12-01T00:08:59.174Z,20.726929
2018-12-01T00:09:26.355Z,20.726929
2018-12-01T00:10:54.608Z,0
2018-12-01T00:12:24.942Z,20.726929
2018-12-01T00:13:55.331Z,20.706787
2018-12-01T00:15:25.705Z,20.716858
2018-12-01T00:16:56.055Z,20.686646
2018-12-01T00:18:26.394Z,20.686646
2018-12-01T00:19:56.712Z,20.706787
2018-12-01T00:29:29.321Z,20.777283
2018-12-01T11:31:50.277Z,20.525513
2018-12-01T11:37:13.380Z,14.241333
2018-12-01T11:42:35.913Z,13.173828
2018-12-01T11:47:59.374Z,13.526306
2018-12-01T11:53:21.907Z,13.103333
2018-12-01T11:58:44.473Z,12.358093
2018-12-01T12:04:07.060Z,11.69342
2018-12-01T12:09:29.619Z,11.93512
2018-12-01T12:14:52.317Z,12.18689
2018-12-01T13:20:12.260Z,10.172729
2018-12-01T13:25:35.065Z,10.011597
2018-12-01T13:30:58.549Z,9.850464
2018-12-01T13:36:21.390Z,9.739685
2018-12-01T13:41:44.357Z,9.649048
2018-12-01T13:47:07.650Z,9.437561
2018-12-01T13:52:30.376Z,9.336853
2018-12-01T13:57:53.109Z,9.346924
2018-12-01T14:03:15.839Z,9.256287
2018-12-01T14:08:38.520Z,9.29657
2018-12-01T14:14:01.196Z,9.185791
2018-12-01T14:19:23.828Z,9.034729
2018-12-01T14:24:46.526Z,8.934021
2018-12-01T14:30:10.194Z,8.964233
2018-12-01T14:35:33.686Z,8.944092
2018-12-01T14:40:56.624Z,8.944092
2018-12-01T14:46:19.713Z,8.913879
2018-12-01T14:51:42.718Z,8.823242
2018-12-01T14:57:05.699Z,8.79303
2018-12-01T15:02:28.487Z,8.641968
2018-12-01T15:07:51.345Z,8.571472
2018-12-01T15:13:14.353Z,8.470764
2018-12-01T15:18:37.528Z,8.370056
2018-12-01T15:24:01.335Z,8.218994
2018-12-01T15:29:24.320Z,8.128357
2018-12-01T15:34:47.830Z,8.057861
2018-12-01T15:40:11.707Z,8.067932
2018-12-01T15:45:34.724Z,8.03772
2018-12-01T15:50:57.782Z,7.91687
2018-12-01T15:56:20.736Z,7.755737
2018-12-01T16:01:43.557Z,7.695312
2018-12-01T16:07:06.602Z,7.78595
2018-12-01T16:12:29.452Z,7.846375
2018-12-01T16:17:52.396Z,7.91687
2018-12-01T16:23:15.393Z,7.937012
2018-12-01T16:28:38.331Z,7.987366
2018-12-01T16:34:01.312Z,8.098145
2018-12-01T16:39:24.495Z,8.088074
2018-12-01T16:44:47.259Z,8.057861
2018-12-01T16:50:11.087Z,8.16864
2018-12-01T16:55:35.060Z,8.178711
2018-12-01T17:00:57.947Z,8.208923
2018-12-01T17:06:20.571Z,8.28949
2018-12-01T17:11:44.186Z,8.28949
2018-12-01T17:17:07.679Z,8.359985
2018-12-01T17:22:30.374Z,8.400269
2018-12-01T17:27:54.174Z,8.370056
2018-12-01T17:33:16.932Z,8.370056
2018-12-01T17:38:40.705Z,8.339844
2018-12-01T17:44:03.410Z,8.490906
2018-12-01T17:49:26.076Z,8.54126
2018-12-01T17:54:50.167Z,8.521118
2018-12-01T18:00:12.803Z,8.601685
2018-12-01T18:05:35.710Z,8.551331
2018-12-01T18:10:58.411Z,8.54126
2018-12-01T18:16:21.105Z,8.390198
2018-12-01T18:21:43.814Z,8.42041
2018-12-01T18:27:06.462Z,8.430481
2018-12-01T18:32:30.551Z,8.390198
2018-12-01T18:37:54.286Z,8.279419
2018-12-01T18:43:17.161Z,8.198853
2018-12-01T18:48:39.884Z,8.138428
2018-12-01T18:54:02.683Z,8.208923
2018-12-01T18:59:25.321Z,8.218994
2018-12-01T19:04:47.983Z,8.28949
2018-12-01T19:10:12.189Z,8.269348
2018-12-01T19:15:36.591Z,8.208923
2018-12-01T19:20:59.746Z,8.218994
2018-12-01T19:26:22.447Z,8.208923
2018-12-01T19:31:46.941Z,8.16864
2018-12-01T19:37:09.669Z,8.098145
2018-12-01T19:42:33.640Z,8.098145
2018-12-01T19:47:56.483Z,8.098145
2018-12-01T19:53:19.247Z,7.937012
2018-12-01T19:58:42.044Z,7.836304
2018-12-01T20:04:05.699Z,7.705383
2018-12-01T20:09:29.429Z,7.604675
2018-12-01T20:14:52.219Z,7.554321
2018-12-01T20:20:15.888Z,7.514038
2018-12-01T20:25:38.657Z,7.574463
2018-12-01T20:31:02.308Z,7.524109
2018-12-01T20:36:25.057Z,7.503967
2018-12-01T20:41:47.875Z,7.423401
2018-12-01T20:47:10.568Z,7.362976
2018-12-01T20:52:33.416Z,7.332764
2018-12-01T20:57:56.196Z,7.272339
2018-12-01T21:03:18.884Z,7.141418
2018-12-01T21:08:43.389Z,7.04071
2018-12-01T21:14:07.244Z,6.960144
2018-12-01T21:19:29.906Z,6.899719
2018-12-01T21:24:52.842Z,6.929932
2018-12-01T21:30:16.750Z,6.940002
2018-12-01T21:35:39.472Z,6.990356
2018-12-01T21:41:02.225Z,7.000427
2018-12-01T21:46:25.077Z,7.050781
2018-12-01T21:51:49.755Z,7.04071
2018-12-01T21:57:12.416Z,7.070923
2018-12-01T22:02:35.118Z,7.080994
2018-12-01T22:07:57.752Z,7.151489
2018-12-01T22:13:20.528Z,7.232056
2018-12-01T22:18:43.217Z,7.342834
2018-12-01T22:24:05.919Z,7.54425
2018-12-01T22:29:28.916Z,7.604675
2018-12-01T22:34:51.629Z,7.6651
2018-12-01T22:40:14.370Z,7.695312
2018-12-01T22:45:37.219Z,7.705383
2018-12-01T22:50:59.862Z,7.695312
2018-12-01T22:56:28.736Z,7.78595
2018-12-01T23:01:46.645Z,7.886658
2018-12-01T23:07:09.309Z,7.91687
2018-12-01T23:12:32.076Z,8.118286
2018-12-01T23:17:55.492Z,8.198853
2018-12-01T23:23:18.123Z,8.218994
2018-12-01T23:28:40.836Z,8.208923
2018-12-01T23:34:03.523Z,8.198853
2018-12-01T23:39:26.162Z,8.198853
2018-12-01T23:44:49.429Z,8.269348
2018-12-01T23:50:12.489Z,8.218994
2018-12-01T23:55:35.159Z,8.28949
